sensor_id;sensor_type;location;lat;lon;timestamp;temperature;humidity
6954;DHT22;3516;47.980;8.808;2023-05-07T05:03:37;13.00;99.90
6954;DHT22;3516;47.980;8.808;2023-05-07T05:06:04;13.80;99.90
6954;DHT22;3516;47.980;8.808;2023-05-07T05:08:31;14.50;99.90
6954;DHT22;3516;47.980;8.808;2023-05-07T05:10:58;15.30;99.90
6954;DHT22;3516;47.980;8.808;2023-05-07T05:13:26;15.90;99.90
6954;DHT22;3516;47.980;8.808;2023-05-07T05:15:53;16.10;99.90
6954;DHT22;3516;47.980;8.808;2023-05-07T05:18:20;16.10;99.90
6954;DHT22;3516;47.980;8.808;2023-05-07T05:20:48;16.10;99.90
6954;DHT22;3516;47.980;8.808;2023-05-07T05:23:15;16.40;99.90
6954;DHT22;3516;47.980;8.808;2023-05-07T05:25:41;16.70;99.90
6954;DHT22;3516;47.980;8.808;2023-05-07T05:28:08;17.20;99.90
6954;DHT22;3516;47.980;8.808;2023-05-07T05:33:02;19.10;99.90
6954;DHT22;3516;47.980;8.808;2023-05-07T05:35:29;20.10;99.90
6954;DHT22;3516;47.980;8.808;2023-05-07T05:37:57;20.90;99.90
6954;DHT22;3516;47.980;8.808;2023-05-07T05:40:24;21.80;91.50
6954;DHT22;3516;47.980;8.808;2023-05-07T05:42:51;22.50;75.60
6954;DHT22;3516;47.980;8.808;2023-05-07T05:45:17;23.50;68.70
6954;DHT22;3516;47.980;8.808;2023-05-07T05:47:44;24.30;67.70
6954;DHT22;3516;47.980;8.808;2023-05-07T05:50:11;25.00;57.00
6954;DHT22;3516;47.980;8.808;2023-05-07T05:52:38;25.60;53.20
6954;DHT22;3516;47.980;8.808;2023-05-07T05:55:08;26.20;47.50
6954;DHT22;3516;47.980;8.808;2023-05-07T05:57:35;26.00;42.70
6954;DHT22;3516;47.980;8.808;2023-05-07T06:00:02;26.40;45.90
6954;DHT22;3516;47.980;8.808;2023-05-07T06:02:30;26.60;41.80
6954;DHT22;3516;47.980;8.808;2023-05-07T06:04:57;26.90;42.50
6954;DHT22;3516;47.980;8.808;2023-05-07T06:07:23;27.40;41.60
6954;DHT22;3516;47.980;8.808;2023-05-07T06:09:50;27.40;40.40
6954;DHT22;3516;47.980;8.808;2023-05-07T06:12:18;27.30;40.20
6954;DHT22;3516;47.980;8.808;2023-05-07T06:14:45;27.00;39.20
6954;DHT22;3516;47.980;8.808;2023-05-07T06:17:11;26.50;39.00
6954;DHT22;3516;47.980;8.808;2023-05-07T06:19:38;25.60;41.60
6954;DHT22;3516;47.980;8.808;2023-05-07T06:22:05;24.80;42.20
6954;DHT22;3516;47.980;8.808;2023-05-07T06:24:32;23.80;45.20
6954;DHT22;3516;47.980;8.808;2023-05-07T06:26:59;23.20;48.20
6954;DHT22;3516;47.980;8.808;2023-05-07T06:29:27;23.00;52.60
6954;DHT22;3516;47.980;8.808;2023-05-07T06:31:55;22.80;54.00
6954;DHT22;3516;47.980;8.808;2023-05-07T06:34:22;22.50;53.10
6954;DHT22;3516;47.980;8.808;2023-05-07T06:36:49;22.00;58.50
6954;DHT22;3516;47.980;8.808;2023-05-07T06:39:15;22.20;67.10
6954;DHT22;3516;47.980;8.808;2023-05-07T06:41:42;22.80;56.40
6954;DHT22;3516;47.980;8.808;2023-05-07T06:44:09;23.10;56.70
6954;DHT22;3516;47.980;8.808;2023-05-07T06:46:37;23.60;55.90
6954;DHT22;3516;47.980;8.808;2023-05-07T06:49:03;24.50;52.50
6954;DHT22;3516;47.980;8.808;2023-05-07T06:51:30;25.00;51.00
6954;DHT22;3516;47.980;8.808;2023-05-07T06:53:57;25.90;49.80
6954;DHT22;3516;47.980;8.808;2023-05-07T06:56:23;27.00;45.80
6954;DHT22;3516;47.980;8.808;2023-05-07T06:58:50;28.00;43.20
6954;DHT22;3516;47.980;8.808;2023-05-07T07:01:17;28.60;41.60
6954;DHT22;3516;47.980;8.808;2023-05-07T07:03:45;27.80;42.30
6954;DHT22;3516;47.980;8.808;2023-05-07T07:06:12;26.90;44.80
6954;DHT22;3516;47.980;8.808;2023-05-07T07:08:39;25.90;45.10
6954;DHT22;3516;47.980;8.808;2023-05-07T07:11:05;24.90;48.00
6954;DHT22;3516;47.980;8.808;2023-05-07T07:13:32;24.50;52.00
6954;DHT22;3516;47.980;8.808;2023-05-07T07:16:00;24.50;52.40
6954;DHT22;3516;47.980;8.808;2023-05-07T07:18:26;24.10;53.50
6954;DHT22;3516;47.980;8.808;2023-05-07T07:20:55;23.80;54.90
6954;DHT22;3516;47.980;8.808;2023-05-07T07:23:21;23.60;57.40
6954;DHT22;3516;47.980;8.808;2023-05-07T07:25:48;23.60;57.00
6954;DHT22;3516;47.980;8.808;2023-05-07T07:28:15;23.40;58.10
6954;DHT22;3516;47.980;8.808;2023-05-07T07:30:41;23.70;58.70
6954;DHT22;3516;47.980;8.808;2023-05-07T07:33:08;23.80;63.50
6954;DHT22;3516;47.980;8.808;2023-05-07T07:35:35;24.40;56.50
6954;DHT22;3516;47.980;8.808;2023-05-07T07:38:03;24.50;57.20
6954;DHT22;3516;47.980;8.808;2023-05-07T07:40:30;25.20;53.70
6954;DHT22;3516;47.980;8.808;2023-05-07T07:42:57;25.20;52.00
6954;DHT22;3516;47.980;8.808;2023-05-07T07:45:24;25.80;53.80
6954;DHT22;3516;47.980;8.808;2023-05-07T07:47:51;26.50;52.80
6954;DHT22;3516;47.980;8.808;2023-05-07T07:50:18;27.40;52.80
6954;DHT22;3516;47.980;8.808;2023-05-07T07:52:45;27.70;54.00
6954;DHT22;3516;47.980;8.808;2023-05-07T07:55:13;27.40;49.00
6954;DHT22;3516;47.980;8.808;2023-05-07T07:57:43;27.30;48.60
6954;DHT22;3516;47.980;8.808;2023-05-07T08:00:11;27.00;50.20
6954;DHT22;3516;47.980;8.808;2023-05-07T08:02:37;26.50;51.90
6954;DHT22;3516;47.980;8.808;2023-05-07T08:05:05;26.00;53.80
6954;DHT22;3516;47.980;8.808;2023-05-07T08:07:32;25.70;54.50
6954;DHT22;3516;47.980;8.808;2023-05-07T08:09:58;25.40;55.70
6954;DHT22;3516;47.980;8.808;2023-05-07T08:12:26;25.10;57.70
6954;DHT22;3516;47.980;8.808;2023-05-07T08:14:53;24.90;58.30
6954;DHT22;3516;47.980;8.808;2023-05-07T08:17:20;24.50;62.30
6954;DHT22;3516;47.980;8.808;2023-05-07T08:19:47;24.20;63.00
6954;DHT22;3516;47.980;8.808;2023-05-07T08:22:14;23.90;66.10
6954;DHT22;3516;47.980;8.808;2023-05-07T08:24:41;23.70;69.20
6954;DHT22;3516;47.980;8.808;2023-05-07T08:27:07;23.40;71.40
6954;DHT22;3516;47.980;8.808;2023-05-07T08:29:35;23.00;80.20
6954;DHT22;3516;47.980;8.808;2023-05-07T08:32:02;22.60;81.70
6954;DHT22;3516;47.980;8.808;2023-05-07T08:34:29;22.60;76.20
6954;DHT22;3516;47.980;8.808;2023-05-07T08:36:55;22.60;74.30
6954;DHT22;3516;47.980;8.808;2023-05-07T08:39:22;22.60;76.40
6954;DHT22;3516;47.980;8.808;2023-05-07T08:41:52;22.50;79.10
6954;DHT22;3516;47.980;8.808;2023-05-07T08:44:22;22.60;79.70
6954;DHT22;3516;47.980;8.808;2023-05-07T08:46:51;22.70;72.60
6954;DHT22;3516;47.980;8.808;2023-05-07T08:49:20;22.70;60.50
6954;DHT22;3516;47.980;8.808;2023-05-07T08:51:46;22.50;57.90
6954;DHT22;3516;47.980;8.808;2023-05-07T08:54:15;22.50;61.50
6954;DHT22;3516;47.980;8.808;2023-05-07T08:56:43;22.60;62.40
6954;DHT22;3516;47.980;8.808;2023-05-07T08:59:10;22.50;63.70
6954;DHT22;3516;47.980;8.808;2023-05-07T09:01:37;22.60;62.20
6954;DHT22;3516;47.980;8.808;2023-05-07T09:04:05;22.60;59.50
6954;DHT22;3516;47.980;8.808;2023-05-07T09:06:32;22.50;56.90
6954;DHT22;3516;47.980;8.808;2023-05-07T09:09:00;22.60;57.80
6954;DHT22;3516;47.980;8.808;2023-05-07T09:11:30;22.70;59.80
6954;DHT22;3516;47.980;8.808;2023-05-07T09:13:57;22.90;61.70
6954;DHT22;3516;47.980;8.808;2023-05-07T09:16:27;22.70;59.10
6954;DHT22;3516;47.980;8.808;2023-05-07T09:18:55;22.80;62.20
6954;DHT22;3516;47.980;8.808;2023-05-07T09:21:23;22.80;60.60
6954;DHT22;3516;47.980;8.808;2023-05-07T09:23:51;22.60;57.20
6954;DHT22;3516;47.980;8.808;2023-05-07T09:26:21;22.50;56.50
6954;DHT22;3516;47.980;8.808;2023-05-07T09:28:48;22.50;59.30
6954;DHT22;3516;47.980;8.808;2023-05-07T09:31:22;22.60;58.80
6954;DHT22;3516;47.980;8.808;2023-05-07T09:33:50;22.60;59.00
6954;DHT22;3516;47.980;8.808;2023-05-07T09:36:18;22.70;61.20
6954;DHT22;3516;47.980;8.808;2023-05-07T09:38:45;22.80;59.40
6954;DHT22;3516;47.980;8.808;2023-05-07T09:41:13;22.90;64.90
6954;DHT22;3516;47.980;8.808;2023-05-07T09:43:40;22.90;59.00
6954;DHT22;3516;47.980;8.808;2023-05-07T09:46:08;22.70;59.60
6954;DHT22;3516;47.980;8.808;2023-05-07T09:48:42;22.50;60.70
6954;DHT22;3516;47.980;8.808;2023-05-07T09:51:20;22.60;64.30
6954;DHT22;3516;47.980;8.808;2023-05-07T09:53:48;22.70;64.10
6954;DHT22;3516;47.980;8.808;2023-05-07T09:56:17;22.90;64.80
6954;DHT22;3516;47.980;8.808;2023-05-07T09:58:46;23.10;65.60
6954;DHT22;3516;47.980;8.808;2023-05-07T10:01:13;23.20;61.00
6954;DHT22;3516;47.980;8.808;2023-05-07T10:03:41;23.20;61.50
6954;DHT22;3516;47.980;8.808;2023-05-07T10:06:10;23.40;64.50
6954;DHT22;3516;47.980;8.808;2023-05-07T10:08:37;23.40;62.90
6954;DHT22;3516;47.980;8.808;2023-05-07T10:11:04;23.50;64.20
6954;DHT22;3516;47.980;8.808;2023-05-07T10:13:32;23.40;63.00
6954;DHT22;3516;47.980;8.808;2023-05-07T10:16:00;23.40;64.00
6954;DHT22;3516;47.980;8.808;2023-05-07T10:18:28;23.60;63.80
6954;DHT22;3516;47.980;8.808;2023-05-07T10:21:02;23.50;61.00
6954;DHT22;3516;47.980;8.808;2023-05-07T10:23:31;23.50;62.30
6954;DHT22;3516;47.980;8.808;2023-05-07T10:25:59;23.50;59.50
6954;DHT22;3516;47.980;8.808;2023-05-07T10:28:29;23.20;63.60
6954;DHT22;3516;47.980;8.808;2023-05-07T10:31:04;23.30;67.50
6954;DHT22;3516;47.980;8.808;2023-05-07T10:33:34;23.50;66.90
6954;DHT22;3516;47.980;8.808;2023-05-07T10:36:05;23.50;67.60
6954;DHT22;3516;47.980;8.808;2023-05-07T10:38:33;23.60;65.80
6954;DHT22;3516;47.980;8.808;2023-05-07T10:41:00;23.80;65.10
6954;DHT22;3516;47.980;8.808;2023-05-07T10:43:39;24.10;62.90
6954;DHT22;3516;47.980;8.808;2023-05-07T10:46:10;24.30;60.30
6954;DHT22;3516;47.980;8.808;2023-05-07T10:49:10;24.40;58.90
6954;DHT22;3516;47.980;8.808;2023-05-07T10:51:41;24.30;56.70
6954;DHT22;3516;47.980;8.808;2023-05-07T10:54:21;24.10;58.10
6954;DHT22;3516;47.980;8.808;2023-05-07T10:56:49;24.00;59.60
6954;DHT22;3516;47.980;8.808;2023-05-07T10:59:35;24.00;59.90
6954;DHT22;3516;47.980;8.808;2023-05-07T11:02:09;24.10;58.10
6954;DHT22;3516;47.980;8.808;2023-05-07T11:04:37;24.30;57.50
6954;DHT22;3516;47.980;8.808;2023-05-07T11:07:30;24.30;58.90
6954;DHT22;3516;47.980;8.808;2023-05-07T11:10:02;24.30;58.40
6954;DHT22;3516;47.980;8.808;2023-05-07T11:12:52;24.40;58.70
6954;DHT22;3516;47.980;8.808;2023-05-07T11:15:41;24.50;63.60
6954;DHT22;3516;47.980;8.808;2023-05-07T11:18:12;24.60;61.00
6954;DHT22;3516;47.980;8.808;2023-05-07T11:20:46;24.40;59.90
6954;DHT22;3516;47.980;8.808;2023-05-07T11:26:15;24.00;66.10
6954;DHT22;3516;47.980;8.808;2023-05-07T11:28:43;23.80;67.70
6954;DHT22;3516;47.980;8.808;2023-05-07T11:31:11;23.60;68.20
6954;DHT22;3516;47.980;8.808;2023-05-07T11:33:38;23.10;72.50
6954;DHT22;3516;47.980;8.808;2023-05-07T11:36:05;22.90;76.60
6954;DHT22;3516;47.980;8.808;2023-05-07T11:38:35;23.00;82.70
6954;DHT22;3516;47.980;8.808;2023-05-07T11:41:03;23.20;80.50
6954;DHT22;3516;47.980;8.808;2023-05-07T11:43:32;23.40;77.50
6954;DHT22;3516;47.980;8.808;2023-05-07T11:46:09;23.40;80.40
6954;DHT22;3516;47.980;8.808;2023-05-07T11:48:36;23.40;76.90
6954;DHT22;3516;47.980;8.808;2023-05-07T11:51:04;23.40;71.90
6954;DHT22;3516;47.980;8.808;2023-05-07T11:53:36;23.20;73.90
6954;DHT22;3516;47.980;8.808;2023-05-07T11:56:06;23.20;80.00
6954;DHT22;3516;47.980;8.808;2023-05-07T11:58:35;23.10;78.00
6954;DHT22;3516;47.980;8.808;2023-05-07T12:01:02;22.90;77.50
6954;DHT22;3516;47.980;8.808;2023-05-07T12:03:29;22.80;80.70
6954;DHT22;3516;47.980;8.808;2023-05-07T12:05:56;22.70;80.90
6954;DHT22;3516;47.980;8.808;2023-05-07T12:08:23;22.70;79.50
6954;DHT22;3516;47.980;8.808;2023-05-07T12:10:50;22.50;82.70
6954;DHT22;3516;47.980;8.808;2023-05-07T12:13:17;22.30;86.40
6954;DHT22;3516;47.980;8.808;2023-05-07T12:15:46;22.00;89.20
6954;DHT22;3516;47.980;8.808;2023-05-07T12:18:13;21.70;95.20
6954;DHT22;3516;47.980;8.808;2023-05-07T12:20:40;21.50;97.60
6954;DHT22;3516;47.980;8.808;2023-05-07T12:23:07;21.30;99.90
6954;DHT22;3516;47.980;8.808;2023-05-07T12:25:35;21.00;95.90
6954;DHT22;3516;47.980;8.808;2023-05-07T12:28:02;20.60;99.90
6954;DHT22;3516;47.980;8.808;2023-05-07T12:30:30;20.30;99.90
6954;DHT22;3516;47.980;8.808;2023-05-07T12:32:58;19.90;99.90
6954;DHT22;3516;47.980;8.808;2023-05-07T12:35:28;19.60;99.90
6954;DHT22;3516;47.980;8.808;2023-05-07T12:37:55;19.10;99.90
6954;DHT22;3516;47.980;8.808;2023-05-07T12:40:22;18.70;99.90
6954;DHT22;3516;47.980;8.808;2023-05-07T12:42:53;18.20;99.90
6954;DHT22;3516;47.980;8.808;2023-05-07T12:45:20;17.70;99.90
6954;DHT22;3516;47.980;8.808;2023-05-07T12:55:14;16.30;99.90
6954;DHT22;3516;47.980;8.808;2023-05-07T12:57:45;16.50;99.90
6954;DHT22;3516;47.980;8.808;2023-05-07T13:00:13;16.60;99.90
6954;DHT22;3516;47.980;8.808;2023-05-07T13:02:41;16.60;99.90
6954;DHT22;3516;47.980;8.808;2023-05-07T13:05:10;16.70;99.90
6954;DHT22;3516;47.980;8.808;2023-05-07T13:07:38;16.80;99.90
6954;DHT22;3516;47.980;8.808;2023-05-07T13:10:07;17.00;99.90
6954;DHT22;3516;47.980;8.808;2023-05-07T13:12:34;17.20;99.90
6954;DHT22;3516;47.980;8.808;2023-05-07T13:15:00;17.40;99.90
6954;DHT22;3516;47.980;8.808;2023-05-07T13:17:27;17.80;99.90
6954;DHT22;3516;47.980;8.808;2023-05-07T13:19:56;17.90;99.90
6954;DHT22;3516;47.980;8.808;2023-05-07T13:22:22;17.90;99.90
6954;DHT22;3516;47.980;8.808;2023-05-07T13:24:53;18.20;99.90
6954;DHT22;3516;47.980;8.808;2023-05-07T13:27:23;18.40;99.90
6954;DHT22;3516;47.980;8.808;2023-05-07T13:29:49;18.40;99.90
6954;DHT22;3516;47.980;8.808;2023-05-07T13:32:16;18.80;99.90
6954;DHT22;3516;47.980;8.808;2023-05-07T13:34:43;18.90;99.90
6954;DHT22;3516;47.980;8.808;2023-05-07T13:37:09;19.10;99.90
6954;DHT22;3516;47.980;8.808;2023-05-07T13:39:37;19.20;99.90
6954;DHT22;3516;47.980;8.808;2023-05-07T13:44:33;19.20;99.90
6954;DHT22;3516;47.980;8.808;2023-05-07T13:47:00;19.50;99.90
6954;DHT22;3516;47.980;8.808;2023-05-07T13:49:29;19.60;99.90
6954;DHT22;3516;47.980;8.808;2023-05-07T13:51:56;19.60;99.90
6954;DHT22;3516;47.980;8.808;2023-05-07T13:56:50;19.70;99.90
6954;DHT22;3516;47.980;8.808;2023-05-07T13:59:21;19.70;99.90
6954;DHT22;3516;47.980;8.808;2023-05-07T14:01:48;19.70;99.90
6954;DHT22;3516;47.980;8.808;2023-05-07T14:04:15;19.80;99.90
6954;DHT22;3516;47.980;8.808;2023-05-07T14:06:42;19.70;99.90
6954;DHT22;3516;47.980;8.808;2023-05-07T14:16:37;19.50;99.90
6954;DHT22;3516;47.980;8.808;2023-05-07T14:21:31;19.50;99.90
6954;DHT22;3516;47.980;8.808;2023-05-07T14:23:58;19.50;99.90
6954;DHT22;3516;47.980;8.808;2023-05-07T14:31:24;19.30;99.90
6954;DHT22;3516;47.980;8.808;2023-05-07T14:33:52;19.20;99.90
6954;DHT22;3516;47.980;8.808;2023-05-07T14:38:48;19.10;99.90
6954;DHT22;3516;47.980;8.808;2023-05-07T14:41:15;19.20;99.90
6954;DHT22;3516;47.980;8.808;2023-05-07T14:43:42;19.10;99.90
6954;DHT22;3516;47.980;8.808;2023-05-07T14:46:15;19.20;99.90
6954;DHT22;3516;47.980;8.808;2023-05-07T14:53:41;19.10;99.90
6954;DHT22;3516;47.980;8.808;2023-05-07T14:56:08;18.70;99.90
6954;DHT22;3516;47.980;8.808;2023-05-07T14:58:35;18.70;99.90
6954;DHT22;3516;47.980;8.808;2023-05-07T15:01:03;18.50;99.90
6954;DHT22;3516;47.980;8.808;2023-05-07T15:03:30;18.40;99.90
6954;DHT22;3516;47.980;8.808;2023-05-07T15:05:58;18.20;99.90
6954;DHT22;3516;47.980;8.808;2023-05-07T15:08:26;18.10;99.90
6954;DHT22;3516;47.980;8.808;2023-05-07T15:10:53;18.00;99.90
6954;DHT22;3516;47.980;8.808;2023-05-07T15:13:21;17.90;99.90
6954;DHT22;3516;47.980;8.808;2023-05-07T15:15:48;17.70;99.90
6954;DHT22;3516;47.980;8.808;2023-05-07T15:18:16;17.50;99.90
6954;DHT22;3516;47.980;8.808;2023-05-07T15:20:43;17.60;99.90
6954;DHT22;3516;47.980;8.808;2023-05-07T15:23:11;17.80;99.90
6954;DHT22;3516;47.980;8.808;2023-05-07T15:25:41;17.70;99.90
6954;DHT22;3516;47.980;8.808;2023-05-07T15:28:08;17.70;99.90
6954;DHT22;3516;47.980;8.808;2023-05-07T15:30:35;17.70;99.90
6954;DHT22;3516;47.980;8.808;2023-05-07T15:33:02;17.80;99.90
6954;DHT22;3516;47.980;8.808;2023-05-07T15:35:29;17.90;99.90
6954;DHT22;3516;47.980;8.808;2023-05-07T15:37:55;17.90;99.90
6954;DHT22;3516;47.980;8.808;2023-05-07T15:40:23;18.00;99.90
6954;DHT22;3516;47.980;8.808;2023-05-07T15:42:54;18.00;99.90
6954;DHT22;3516;47.980;8.808;2023-05-07T15:45:22;18.10;99.90
6954;DHT22;3516;47.980;8.808;2023-05-07T15:47:49;18.10;99.90
6954;DHT22;3516;47.980;8.808;2023-05-07T15:50:16;18.00;99.90
6954;DHT22;3516;47.980;8.808;2023-05-07T15:52:42;18.00;99.90
6954;DHT22;3516;47.980;8.808;2023-05-07T15:55:11;18.00;99.90
6954;DHT22;3516;47.980;8.808;2023-05-07T16:00:08;17.80;99.90
6954;DHT22;3516;47.980;8.808;2023-05-07T16:05:05;17.80;99.90
6954;DHT22;3516;47.980;8.808;2023-05-07T16:07:34;17.80;99.90
6954;DHT22;3516;47.980;8.808;2023-05-07T16:10:01;17.90;99.90
6954;DHT22;3516;47.980;8.808;2023-05-07T16:19:51;17.60;99.90
6954;DHT22;3516;47.980;8.808;2023-05-07T16:22:17;17.50;99.90
6954;DHT22;3516;47.980;8.808;2023-05-07T16:24:44;17.40;99.90
6954;DHT22;3516;47.980;8.808;2023-05-07T16:27:11;17.40;99.90
6954;DHT22;3516;47.980;8.808;2023-05-07T16:29:38;17.40;99.90
6954;DHT22;3516;47.980;8.808;2023-05-07T16:32:05;17.20;99.90
6954;DHT22;3516;47.980;8.808;2023-05-07T16:34:33;17.10;99.90
6954;DHT22;3516;47.980;8.808;2023-05-07T16:37:02;17.00;99.90
6954;DHT22;3516;47.980;8.808;2023-05-07T16:44:24;16.70;99.90
6954;DHT22;3516;47.980;8.808;2023-05-07T16:46:51;16.70;99.90
6954;DHT22;3516;47.980;8.808;2023-05-07T16:49:18;16.60;99.90
6954;DHT22;3516;47.980;8.808;2023-05-07T16:51:46;16.50;99.90
6954;DHT22;3516;47.980;8.808;2023-05-07T16:54:13;16.50;99.90
6954;DHT22;3516;47.980;8.808;2023-05-07T16:56:39;16.40;99.90
6954;DHT22;3516;47.980;8.808;2023-05-07T16:59:08;16.40;99.90
6954;DHT22;3516;47.980;8.808;2023-05-07T17:01:35;16.00;99.90
6954;DHT22;3516;47.980;8.808;2023-05-07T17:04:01;17.00;99.90
6954;DHT22;3516;47.980;8.808;2023-05-07T17:06:28;16.10;99.90
6954;DHT22;3516;47.980;8.808;2023-05-07T17:08:57;16.20;99.90
6954;DHT22;3516;47.980;8.808;2023-05-07T17:11:24;16.00;99.90
6954;DHT22;3516;47.980;8.808;2023-05-07T17:16:22;15.90;99.90
6954;DHT22;3516;47.980;8.808;2023-05-07T17:18:49;16.00;99.90
6954;DHT22;3516;47.980;8.808;2023-05-07T17:21:15;15.90;99.90
6954;DHT22;3516;47.980;8.808;2023-05-07T17:23:42;16.00;99.90
6954;DHT22;3516;47.980;8.808;2023-05-07T17:26:14;16.00;99.90
6954;DHT22;3516;47.980;8.808;2023-05-07T17:28:40;16.00;99.90
6954;DHT22;3516;47.980;8.808;2023-05-07T17:31:07;16.00;99.90
6954;DHT22;3516;47.980;8.808;2023-05-07T17:36:01;15.90;99.90
6954;DHT22;3516;47.980;8.808;2023-05-07T17:38:28;16.00;99.90
6954;DHT22;3516;47.980;8.808;2023-05-07T17:40:55;15.90;99.90
6954;DHT22;3516;47.980;8.808;2023-05-07T17:43:24;15.80;99.90
6954;DHT22;3516;47.980;8.808;2023-05-07T17:45:51;15.80;99.90
6954;DHT22;3516;47.980;8.808;2023-05-07T17:48:18;15.70;99.90
6954;DHT22;3516;47.980;8.808;2023-05-07T17:50:45;15.70;99.90
6954;DHT22;3516;47.980;8.808;2023-05-07T17:53:11;15.60;99.90
6954;DHT22;3516;47.980;8.808;2023-05-07T17:55:41;15.50;99.90
6954;DHT22;3516;47.980;8.808;2023-05-07T17:58:08;15.50;99.90
6954;DHT22;3516;47.980;8.808;2023-05-07T18:00:36;15.50;99.90
6954;DHT22;3516;47.980;8.808;2023-05-07T18:03:03;15.40;99.90
6954;DHT22;3516;47.980;8.808;2023-05-07T18:05:30;15.40;99.90
6954;DHT22;3516;47.980;8.808;2023-05-07T18:07:57;15.40;99.90
6954;DHT22;3516;47.980;8.808;2023-05-07T18:10:24;15.30;99.90
6954;DHT22;3516;47.980;8.808;2023-05-07T18:12:51;15.30;99.90
6954;DHT22;3516;47.980;8.808;2023-05-07T18:15:18;15.20;99.90
6954;DHT22;3516;47.980;8.808;2023-05-07T18:17:46;15.20;99.90
6954;DHT22;3516;47.980;8.808;2023-05-07T18:20:12;15.10;99.90
6954;DHT22;3516;47.980;8.808;2023-05-07T18:22:39;15.10;99.90
6954;DHT22;3516;47.980;8.808;2023-05-07T18:25:07;15.00;99.90
6954;DHT22;3516;47.980;8.808;2023-05-07T18:27:34;15.00;99.90
6954;DHT22;3516;47.980;8.808;2023-05-07T18:30:01;15.00;99.90
6954;DHT22;3516;47.980;8.808;2023-05-07T18:32:27;15.10;99.90
6954;DHT22;3516;47.980;8.808;2023-05-07T18:34:55;15.00;99.90
6954;DHT22;3516;47.980;8.808;2023-05-07T18:37:22;14.90;99.90
6954;DHT22;3516;47.980;8.808;2023-05-07T18:39:49;14.90;99.90
6954;DHT22;3516;47.980;8.808;2023-05-07T18:42:16;14.90;99.90
6954;DHT22;3516;47.980;8.808;2023-05-07T18:44:42;14.80;99.90
6954;DHT22;3516;47.980;8.808;2023-05-07T18:47:10;14.80;99.90
6954;DHT22;3516;47.980;8.808;2023-05-07T18:49:38;14.80;99.90
6954;DHT22;3516;47.980;8.808;2023-05-07T18:52:06;14.80;99.90
6954;DHT22;3516;47.980;8.808;2023-05-07T18:54:33;14.80;99.90
6954;DHT22;3516;47.980;8.808;2023-05-07T18:56:59;14.70;99.90
6954;DHT22;3516;47.980;8.808;2023-05-07T18:59:26;14.70;99.90
6954;DHT22;3516;47.980;8.808;2023-05-07T19:01:53;14.70;99.90
6954;DHT22;3516;47.980;8.808;2023-05-07T19:04:20;14.60;99.90
6954;DHT22;3516;47.980;8.808;2023-05-07T19:06:46;14.60;99.90
6954;DHT22;3516;47.980;8.808;2023-05-07T19:09:14;14.60;99.90
6954;DHT22;3516;47.980;8.808;2023-05-07T19:11:41;14.60;99.90
6954;DHT22;3516;47.980;8.808;2023-05-07T19:14:08;14.50;99.90
6954;DHT22;3516;47.980;8.808;2023-05-07T19:16:35;14.50;99.90
6954;DHT22;3516;47.980;8.808;2023-05-07T19:19:02;14.50;99.90
6954;DHT22;3516;47.980;8.808;2023-05-07T19:21:30;14.50;99.90
6954;DHT22;3516;47.980;8.808;2023-05-07T19:23:56;14.40;99.90
6954;DHT22;3516;47.980;8.808;2023-05-07T19:26:24;14.50;99.90
6954;DHT22;3516;47.980;8.808;2023-05-07T19:28:51;14.40;99.90
6954;DHT22;3516;47.980;8.808;2023-05-07T19:31:18;14.30;99.90
6954;DHT22;3516;47.980;8.808;2023-05-07T19:33:45;14.40;99.90
6954;DHT22;3516;47.980;8.808;2023-05-07T19:36:12;14.40;99.90
6954;DHT22;3516;47.980;8.808;2023-05-07T19:38:41;14.40;99.90
6954;DHT22;3516;47.980;8.808;2023-05-07T19:41:08;14.30;99.90
6954;DHT22;3516;47.980;8.808;2023-05-07T19:43:36;14.30;99.90
6954;DHT22;3516;47.980;8.808;2023-05-07T19:46:03;14.30;99.90
6954;DHT22;3516;47.980;8.808;2023-05-07T19:48:30;14.30;99.90
6954;DHT22;3516;47.980;8.808;2023-05-07T19:50:57;14.30;99.90
6954;DHT22;3516;47.980;8.808;2023-05-07T19:53:24;14.30;99.90
6954;DHT22;3516;47.980;8.808;2023-05-07T19:56:00;14.20;99.90
6954;DHT22;3516;47.980;8.808;2023-05-07T19:58:27;14.20;99.90
6954;DHT22;3516;47.980;8.808;2023-05-07T20:00:55;14.20;99.90
6954;DHT22;3516;47.980;8.808;2023-05-07T20:03:22;14.10;99.90
6954;DHT22;3516;47.980;8.808;2023-05-07T20:05:49;14.10;99.90
6954;DHT22;3516;47.980;8.808;2023-05-07T20:08:16;14.10;99.90
6954;DHT22;3516;47.980;8.808;2023-05-07T20:10:42;14.10;99.90
6954;DHT22;3516;47.980;8.808;2023-05-07T20:13:09;14.10;99.90
6954;DHT22;3516;47.980;8.808;2023-05-07T20:15:36;14.10;99.90
6954;DHT22;3516;47.980;8.808;2023-05-07T20:18:05;14.00;99.90
6954;DHT22;3516;47.980;8.808;2023-05-07T20:20:32;14.00;99.90
6954;DHT22;3516;47.980;8.808;2023-05-07T20:22:59;14.00;99.90
6954;DHT22;3516;47.980;8.808;2023-05-07T20:25:26;14.00;99.90
6954;DHT22;3516;47.980;8.808;2023-05-07T20:27:53;14.00;99.90
6954;DHT22;3516;47.980;8.808;2023-05-07T20:30:19;14.00;99.90
6954;DHT22;3516;47.980;8.808;2023-05-07T20:32:48;14.00;99.90
6954;DHT22;3516;47.980;8.808;2023-05-07T20:35:16;14.00;99.90
6954;DHT22;3516;47.980;8.808;2023-05-07T20:37:43;13.90;99.90
6954;DHT22;3516;47.980;8.808;2023-05-07T20:40:10;13.90;99.90
6954;DHT22;3516;47.980;8.808;2023-05-07T20:42:37;13.90;99.90
6954;DHT22;3516;47.980;8.808;2023-05-07T20:45:04;13.90;99.90
6954;DHT22;3516;47.980;8.808;2023-05-07T20:47:31;13.90;99.90
6954;DHT22;3516;47.980;8.808;2023-05-07T20:49:58;13.80;99.90
6954;DHT22;3516;47.980;8.808;2023-05-07T20:52:26;13.80;99.90
6954;DHT22;3516;47.980;8.808;2023-05-07T20:54:52;13.80;99.90
6954;DHT22;3516;47.980;8.808;2023-05-07T20:57:19;13.80;99.90
6954;DHT22;3516;47.980;8.808;2023-05-07T20:59:46;13.80;99.90
6954;DHT22;3516;47.980;8.808;2023-05-07T21:02:12;13.80;99.90
6954;DHT22;3516;47.980;8.808;2023-05-07T21:04:39;13.80;99.90
6954;DHT22;3516;47.980;8.808;2023-05-07T21:07:06;13.80;99.90
6954;DHT22;3516;47.980;8.808;2023-05-07T21:09:34;13.80;99.90
6954;DHT22;3516;47.980;8.808;2023-05-07T21:12:01;13.80;99.90
6954;DHT22;3516;47.980;8.808;2023-05-07T21:14:28;13.80;99.90
6954;DHT22;3516;47.980;8.808;2023-05-07T21:16:55;13.80;99.90
6954;DHT22;3516;47.980;8.808;2023-05-07T21:19:23;13.70;99.90
6954;DHT22;3516;47.980;8.808;2023-05-07T21:21:50;13.70;99.90
6954;DHT22;3516;47.980;8.808;2023-05-07T21:24:18;13.70;99.90
6954;DHT22;3516;47.980;8.808;2023-05-07T21:26:46;13.70;99.90
